Latest Coastal Weather Observations for Sydney Airport

IDN60701

Issued at 11:02 am EDT Tuesday 7 December 2021 (issued every 10 minutes, with the page automatically refreshed every 10 minutes)

About coastal observations | Map of coastal stations | Coastal observations for NSW | Marine services | Other Formats
Station Details ID: 066037 Name: SYDNEY AIRPORT AMO Lat: -33.95 Lon: 151.17 Height: 6.0 m
Data from the previous 72 hours. | See also: Recent months at Sydney Airport
Date/Time
EDT
Wind Sea
Height
m
Swell Vis
km
Cloud Weather Temp
°C
Press
MSL
hPa
Rain since
9am
mm
Dir  Spd
kts
Gust
kts
Height
m
Period
s
Dir
07/10:30am N 7 10 - - - - 10 Mostly clear - 22.4 1012.3 0.0
07/10:00am NNW 9 12 - - - - 10 Mostly clear - 22.3 1012.5 0.0
07/09:30am N 7 10 - - - - 10 Mostly clear - 22.8 1012.7 0.0
07/09:00am NNW 7 11 - - - - 25 Mostly cloudy Distant precip. 22.7 1012.7 0.0
07/08:30am NW 6 8 - - - - 10 - - 21.9 1013.0 0.0
07/08:00am NNW 5 8 - - - - 10 - - 21.8 1013.1 0.0
07/07:30am NW 1 4 - - - - 10 Partly cloudy - 21.0 1012.9 0.0
07/07:00am CALM 0 0 - - - - 10 Partly cloudy - 19.8 1012.7 0.0
07/06:30am CALM 0 0 - - - - 10 - - 19.6 1012.8 0.0
07/06:00am WNW 4 5 - - - - 25 Mostly cloudy Fine 19.3 1012.7 0.0
07/05:30am CALM 0 0 - - - - 10 - - 18.6 1012.4 0.0
07/05:00am W 4 5 - - - - 10 - - 18.6 1012.6 0.0
07/04:30am W 5 6 - - - - 10 - - 18.2 1012.8 0.0
07/04:00am WNW 5 6 - - - - 10 Partly cloudy - 18.4 1012.8 0.0
07/03:30am WNW 5 6 - - - - 10 Mostly clear - 18.5 1013.0 0.0
07/03:00am WSW 6 7 - - - - 25 Mostly cloudy Fine 18.2 1013.1 0.0
07/02:30am WNW 4 6 - - - - 10 Partly cloudy - 18.7 1013.3 0.0
07/02:00am NNW 3 4 - - - - 10 Partly cloudy - 19.1 1013.7 0.0
07/01:30am NW 6 7 - - - - 10 Mostly clear - 19.5 1014.3 0.0
07/01:00am NW 5 6 - - - - 10 - - 19.3 1014.8 0.0
07/12:30am WNW 5 6 - - - - 10 - - 19.3 1015.1 0.0
07/12:00am N 4 6 - - - - 25 Mostly cloudy Fine 19.8 1015.5 0.0
 
Date/Time
EDT
Wind Sea
Height
m
Swell Vis
km
Cloud Weather Temp
°C
Press
MSL
hPa
Rain since
9am
mm
Dir  Spd
kts
Gust
kts
Height
m
Period
s
Dir
06/11:30pm CALM 0 0 - - - - 10 Partly cloudy - 20.1 1015.6 0.0
06/11:00pm NNE 4 5 - - - - 10 Partly cloudy - 20.0 1015.8 0.0
06/10:30pm NNE 5 6 - - - - 10 Partly cloudy - 19.8 1015.8 0.0
06/10:00pm NNE 5 5 - - - - 10 Partly cloudy - 20.3 1016.2 0.0
06/09:30pm NNE 5 6 - - - - 10 Mostly clear - 20.1 1016.1 0.0
06/09:00pm NNE 7 8 - - - - 25 Mostly cloudy Fine 20.5 1016.1 0.0
06/08:30pm NNE 6 8 - - - - 10 Partly cloudy - 20.6 1016.2 0.0
06/08:00pm NNE 8 11 - - - - 10 Partly cloudy - 20.8 1016.0 0.0
06/07:30pm NNE 9 12 - - - - 10 Mostly cloudy - 21.0 1015.8 0.0
06/07:00pm NE 10 15 - - - - 10 Mostly cloudy - 20.8 1015.5 0.0
06/06:30pm NE 11 14 - - - - 10 Partly cloudy - 21.4 1015.9 0.0
06/06:00pm NE 11 14 - - - - 25 Cloudy Fine 20.8 1015.8 0.0
06/05:30pm NE 10 13 - - - - 10 Mostly clear - 20.8 1015.9 0.0
06/05:00pm NNE 10 14 - - - - 10 Mostly clear - 20.9 1016.2 0.0
06/04:30pm NNE 10 13 - - - - 10 Mostly clear - 21.3 1016.4 0.0
06/04:00pm NNE 10 15 - - - - 10 Mostly clear - 22.0 1016.8 0.0
06/03:30pm NE 12 15 - - - - 10 Mostly clear - 21.5 1017.2 0.0
06/03:00pm NE 12 15 - - - - 25 Cloudy Fine 20.7 1017.6 0.0
06/02:30pm NE 14 17 - - - - 10 Partly cloudy - 21.5 1017.8 0.0
06/02:00pm NE 13 17 - - - - 10 Partly cloudy - 21.5 1018.0 0.0
06/01:30pm NE 11 16 - - - - 10 Partly cloudy - 22.4 1018.4 0.0
06/01:00pm NE 13 18 - - - - 10 Partly cloudy - 22.1 1018.5 0.0
06/12:30pm NE 13 16 - - - - 10 Partly cloudy - 22.0 1018.8 0.0
06/12:00pm ENE 13 20 - - - - 25 Mostly cloudy Fine 22.3 1019.0 0.0
06/11:30am ENE 12 16 - - - - 10 Partly cloudy - 22.0 1019.2 0.0
06/11:00am NE 13 17 - - - - 10 Partly cloudy - 20.9 1019.7 0.0
06/10:30am NE 12 15 - - - - 10 Partly cloudy - 20.8 1019.8 0.0
06/10:00am ENE 11 15 - - - - 10 Partly cloudy - 20.2 1019.9 0.0
06/09:30am WSW 3 5 - - - - 10 Partly cloudy - 19.6 1020.3 0.0
06/09:00am SW 4 5 - - - - 20 Cloudy Drizzle 19.4 1020.4 0.6
06/08:30am WNW 3 5 - - - - 10 Partly cloudy - 19.8 1020.5 0.6
06/08:00am NW 2 4 - - - - 10 Partly cloudy - 19.5 1020.6 0.6
06/07:30am W 5 5 - - - - 10 Partly cloudy - 17.6 1020.4 0.6
06/07:00am WNW 5 8 - - - - 10 Partly cloudy - 18.1 1020.3 0.6
06/06:30am WSW 5 6 - - - - 10 Partly cloudy - 17.2 1020.4 0.6
06/06:00am CALM 0 2 - - - - 25 Mostly cloudy Distant precip. 17.4 1020.3 0.6
06/05:30am NE 7 11 - - - - 10 Mostly clear Showers 17.0 1020.1 0.6
06/05:00am ENE 8 11 - - - - 10 Mostly clear - 18.1 1020.0 0.6
06/04:30am E 6 8 - - - - 10 Mostly clear - 18.1 1019.8 0.6
06/04:00am ENE 8 12 - - - - 10 Mostly clear - 18.3 1019.8 0.6
06/03:30am ENE 10 12 - - - - 10 Mostly clear - 18.3 1019.9 0.6
06/03:00am E 9 12 - - - - 25 Mostly cloudy Distant precip. 18.1 1020.1 0.6
06/02:30am E 9 13 - - - - 10 Mostly clear - 17.8 1020.6 0.6
06/02:00am ESE 3 9 - - - - 10 Partly cloudy - 17.0 1021.0 0.6
06/01:30am ESE 6 8 - - - - 10 Partly cloudy Drizzle 17.2 1021.7 0.6
06/01:00am E 8 10 - - - - 10 Partly cloudy - 17.5 1021.9 0.6
06/12:30am ESE 13 16 - - - - 10 Partly cloudy - 17.7 1022.1 0.6
06/12:00am ESE 11 14 - - - - 25 Mostly cloudy Distant precip. 17.5 1022.5 0.6
 
Date/Time
EDT
Wind Sea
Height
m
Swell Vis
km
Cloud Weather Temp
°C
Press
MSL
hPa
Rain since
9am
mm
Dir  Spd
kts
Gust
kts
Height
m
Period
s
Dir
05/11:30pm ESE 13 16 - - - - 10 Mostly clear - 17.7 1022.8 0.6
05/11:00pm ESE 13 16 - - - - 10 Partly cloudy - 17.3 1022.9 0.6
05/10:30pm ESE 8 10 - - - - 10 Mostly clear - 17.5 1023.0 0.6
05/10:00pm E 10 14 - - - - 10 Mostly clear - 18.2 1023.2 0.6
05/09:30pm ESE 9 12 - - - - 10 Partly cloudy - 18.0 1023.0 0.6
05/09:00pm ESE 9 11 - - - - 25 Mostly cloudy Fine 18.2 1022.7 0.6
05/08:30pm ESE 10 13 - - - - 10 Partly cloudy - 18.2 1022.5 0.6
05/08:00pm ESE 9 13 - - - - 10 Partly cloudy - 18.2 1022.3 0.6
05/07:30pm ESE 11 15 - - - - 10 Partly cloudy - 18.3 1022.3 0.6
05/07:00pm ESE 14 17 - - - - 10 Partly cloudy - 18.3 1022.1 0.6
05/06:30pm ESE 13 17 - - - - 10 Mostly clear - 18.4 1021.9 0.6
05/06:00pm ESE 15 18 - - - - 25 Mostly cloudy Fine 18.6 1021.6 0.6
05/05:30pm ESE 14 17 - - - - 10 Mostly clear - 18.7 1021.8 0.6
05/05:00pm SE 14 17 - - - - 10 Partly cloudy - 18.6 1021.8 0.6
05/04:30pm SE 15 19 - - - - 10 Partly cloudy - 18.9 1021.9 0.6
05/04:00pm SE 15 19 - - - - 10 Partly cloudy - 19.2 1021.9 0.6
05/03:30pm SE 15 20 - - - - 10 Mostly clear - 18.7 1022.0 0.6
05/03:00pm SE 15 19 - - - - 25 Cloudy Distant precip. 18.9 1022.2 0.6
05/02:30pm SE 16 20 - - - - 10 Partly cloudy - 18.6 1022.2 0.6
05/02:00pm SE 15 18 - - - - 10 Mostly clear - 18.6 1022.2 0.6
05/01:30pm SE 15 19 - - - - 10 Mostly clear Showers 18.6 1022.2 0.6
05/01:00pm SE 15 19 - - - - 10 Partly cloudy - 19.4 1022.2 0.6
05/12:30pm SE 15 19 - - - - 10 Mostly clear - 18.7 1022.2 0.6
05/12:00pm SE 16 19 - - - - 18 Cloudy Recent precip. 18.8 1022.3 0.6
05/11:30am ESE 14 18 - - - - 10 Mostly clear - 19.0 1022.2 0.6
05/11:00am SE 15 19 - - - - 10 Mostly clear - 18.5 1022.1 0.6
05/10:30am S 10 14 - - - - 10 Mostly clear Showers 17.6 1022.0 0.6
05/10:00am SSW 12 15 - - - - 10 Mostly clear - 17.0 1021.8 0.6
05/09:30am SSW 13 18 - - - - 8 Mostly clear Showers 16.4 1021.8 0.4
05/09:00am SSW 14 19 - - - - 18 Cloudy Showers 17.1 1021.7 0.8
05/08:30am SSW 14 17 - - - - 10 Mostly clear Showers 17.0 1021.6 0.8
05/08:00am SE 15 18 - - - - 10 Mostly clear - 17.9 1021.3 0.8
05/07:30am SSE 16 19 - - - - 10 Mostly clear Showers 17.4 1020.7 0.8
05/07:00am SSE 13 16 - - - - 9 Mostly clear - 18.0 1020.2 0.0
05/06:30am SSE 13 16 - - - - 10 Mostly clear Showers 18.5 1019.7 0.0
05/06:00am SSE 16 21 - - - - 25 Mostly cloudy Showers 18.1 1019.5 0.0
05/05:30am SSE 16 20 - - - - 10 Mostly clear - 18.4 1019.3 0.0
05/05:00am SSE 15 19 - - - - 10 Mostly clear - 18.5 1019.2 0.0
05/04:30am SE 17 20 - - - - 10 Mostly clear Showers 18.3 1019.2 0.0
05/04:00am SSE 16 21 - - - - 10 Mostly clear - 18.5 1019.1 0.0
05/03:34am SSE 15 26 - - - - 10 Mostly clear Showers 18.3 1019.0 0.0
05/03:30am SSE 15 23 - - - - 10 Mostly clear Showers 18.3 1019.0 0.0
05/03:00am SE 18 26 - - - - 18 Cloudy Showers 17.3 1019.2 0.0
05/02:42am SE 18 28 - - - - 10 Mostly clear Showers 18.0 1019.2 0.0
05/02:30am SE 18 26 - - - - 10 Mostly clear Showers 17.9 1019.1 0.0
05/02:00am SSE 17 24 - - - - 10 Mostly clear - 18.2 1019.3 0.0
05/01:30am SSE 18 22 - - - - 10 Mostly clear Showers 18.7 1019.2 0.0
05/01:00am SSE 17 22 - - - - 10 Mostly clear - 18.5 1019.4 0.0
05/12:30am SSE 14 21 - - - - 10 Partly cloudy Showers 18.3 1019.5 0.0
05/12:00am SSE 18 24 - - - - 18 Cloudy Recent precip. 17.6 1019.9 0.0
 
Date/Time
EDT
Wind Sea
Height
m
Swell Vis
km
Cloud Weather Temp
°C
Press
MSL
hPa
Rain since
9am
mm
Dir  Spd
kts
Gust
kts
Height
m
Period
s
Dir
04/11:30pm SSE 16 20 - - - - 10 Mostly clear Showers 17.5 1019.7 0.0
04/11:00pm SSE 19 24 - - - - 10 Mostly clear - 17.5 1019.4 0.0
04/10:30pm S 21 28 - - - - 10 Mostly clear Showers 18.2 1018.9 0.0
04/10:00pm SSE 17 23 - - - - 10 Mostly clear - 18.0 1018.8 0.0
04/09:30pm SSE 20 26 - - - - 9 Mostly clear Showers 17.7 1018.3 0.0
04/09:00pm SSE 19 25 - - - - 18 Cloudy Distant precip. 19.2 1017.6 0.0
04/08:30pm SSE 19 25 - - - - 10 Mostly clear - 19.4 1017.1 0.0
04/08:00pm SSE 18 23 - - - - 10 Mostly clear - 19.3 1016.6 0.0
04/07:30pm SSE 18 23 - - - - 10 Mostly clear Showers 19.4 1016.1 0.0
04/07:00pm SSE 19 25 - - - - 10 Mostly clear - 19.6 1015.4 0.0
04/06:30pm SSE 20 25 - - - - 10 Mostly clear - 19.6 1014.9 0.0
04/06:00pm SSE 21 27 - - - - 18 Cloudy Showers 19.2 1014.5 0.0
04/05:30pm SSE 22 27 - - - - 10 Partly cloudy - 19.6 1013.9 0.0
04/05:00pm S 22 29 - - - - 10 Mostly clear - 19.4 1013.7 0.0
04/04:30pm S 23 27 - - - - 10 Mostly clear - 19.4 1013.7 0.0
04/04:00pm S 21 27 - - - - 10 Partly cloudy - 19.6 1013.6 0.0
04/03:30pm S 20 28 - - - - 10 Partly cloudy - 19.8 1013.5 0.0
04/03:00pm S 21 27 - - - - 25 Mostly cloudy Fine 20.0 1013.5 0.0
04/02:30pm S 22 27 - - - - 10 Mostly clear - 20.1 1013.4 0.0
04/02:00pm S 20 27 - - - - 10 Mostly clear - 20.3 1013.6 0.0
04/01:30pm S 20 25 - - - - 10 Partly cloudy - 20.2 1013.7 0.0
04/01:00pm S 20 25 - - - - 10 Mostly clear - 19.7 1014.0 0.0
04/12:30pm S 19 23 - - - - 10 Mostly clear - 19.6 1014.0 0.0
04/12:00pm S 19 23 - - - - 25 Cloudy Fine 19.3 1014.0 0.0
04/11:30am S 19 22 - - - - 10 Mostly cloudy - 19.3 1014.1 0.0

Other formats

Comma delimited format used in spreadsheet applications
http://www.bom.gov.au/fwo/IDN60701/IDN60701.94767.axf

JavaScript Object Notation format (JSON) in row-major order
http://www.bom.gov.au/fwo/IDN60701/IDN60701.94767.json

Data quality

Most of these data are generated automatically and are frequently updated. Quality checks on data are not normally performed. It is possible for incorrect values to appear. Refer to information at About Latest Weather Observations and please check the disclaimer before using these data.